Savannah River Plant, South Carolina
Current Conditions -  °F | °C
As of 11:35 AM on Thursday 29 Jan 2015 (Local Time) from KBNL Reporting Station
Few Clouds Few Clouds  
Wind Chill: 52°   Ceiling: Unl
Heat Index: 52°   Visibility: NA
Dew Point: 27°   Wind: 6mph
Humidity: 38%   Direction: 180°S
Pressure: 30.35"   Gusts: NA
Location:  33.2653°N, 81.6553°W
Report Text: KBNL 291635Z AUTO 18005KT FEW043 11/M03 A3035 RMK AO2
Loading
Personal Weather Stations






























Interactive Weather Map New forecast layout! Learn more

10-Day Weather Forecast

Advertisements
Track Severe Weather on mobile